createdAt,value
2018-07-25T00:00:58.228Z,36.28
2018-07-25T00:03:31.213Z,40.63
2018-07-25T00:06:04.243Z,60.28
2018-07-25T00:08:40.859Z,54.03
2018-07-25T00:11:13.772Z,46.90
2018-07-25T00:13:46.735Z,56.75
2018-07-25T00:16:19.726Z,59.03
2018-07-25T00:18:52.914Z,48.45
2018-07-25T00:21:26.368Z,55.63
2018-07-25T00:23:59.375Z,51.23
2018-07-25T00:26:32.733Z,45.17
2018-07-25T00:29:05.603Z,53.47
2018-07-25T00:31:38.539Z,61.00
2018-07-25T00:34:11.737Z,42.27
2018-07-25T00:36:44.878Z,63.23
2018-07-25T00:39:17.777Z,52.50
2018-07-25T00:41:50.792Z,45.77
2018-07-25T00:44:23.759Z,34.33
2018-07-25T00:46:56.882Z,39.47
2018-07-25T00:49:29.717Z,38.27
2018-07-25T00:52:03.410Z,51.10
2018-07-25T00:54:37.388Z,43.43
2018-07-25T00:57:11.570Z,49.67
2018-07-25T00:59:47.052Z,57.07
2018-07-25T01:02:27.297Z,44.10
2018-07-25T01:05:00.270Z,57.40
2018-07-25T01:07:33.369Z,50.23
2018-07-25T01:10:08.766Z,55.57
2018-07-25T01:12:47.002Z,52.03
2018-07-25T01:15:24.336Z,51.00
2018-07-25T01:18:00.424Z,56.33
2018-07-25T01:20:38.003Z,54.70
2018-07-25T01:23:15.472Z,36.30
2018-07-25T01:25:48.592Z,47.00
2018-07-25T01:28:21.837Z,62.70
2018-07-25T01:30:54.818Z,41.63
2018-07-25T01:33:27.691Z,45.57
2018-07-25T01:36:00.738Z,51.80
2018-07-25T01:38:40.717Z,59.30
2018-07-25T01:41:13.722Z,56.07
2018-07-25T01:43:46.926Z,61.20
2018-07-25T01:46:20.150Z,47.10
2018-07-25T01:48:53.085Z,72.07
2018-07-25T01:51:25.921Z,45.00
2018-07-25T01:53:58.873Z,50.53
2018-07-25T01:56:31.971Z,51.40
2018-07-25T01:59:04.839Z,47.73
2018-07-25T02:01:37.912Z,56.20
2018-07-25T02:04:10.863Z,49.23
2018-07-25T02:06:43.800Z,47.87
2018-07-25T02:09:16.982Z,43.17
2018-07-25T02:11:49.878Z,35.33
2018-07-25T02:14:22.967Z,47.03
2018-07-25T02:16:56.048Z,53.63
2018-07-25T02:19:30.196Z,50.37
2018-07-25T02:22:03.144Z,30.27
2018-07-25T02:24:36.034Z,46.53
2018-07-25T02:27:09.187Z,48.67
2018-07-25T02:29:42.063Z,36.10
2018-07-25T02:32:15.120Z,44.27
2018-07-25T02:37:57.954Z,40.13
2018-07-25T02:40:34.528Z,36.23
2018-07-25T02:43:23.312Z,43.63
2018-07-25T02:46:02.637Z,48.47
2018-07-25T02:48:36.503Z,42.87
2018-07-25T02:51:09.401Z,40.90
2018-07-25T02:53:48.841Z,44.50
2018-07-25T02:56:35.098Z,36.93
2018-07-25T02:59:08.159Z,39.37
2018-07-25T03:01:40.864Z,44.30
2018-07-25T03:04:13.686Z,46.67
2018-07-25T03:06:46.562Z,49.53
2018-07-25T03:09:19.288Z,63.43
2018-07-25T03:11:52.088Z,55.70
2018-07-25T03:14:26.410Z,47.73
2018-07-25T03:17:00.240Z,45.47
2018-07-25T03:19:37.344Z,53.23
2018-07-25T03:22:10.161Z,50.73
2018-07-25T03:24:42.893Z,52.17
2018-07-25T03:27:15.635Z,57.33
2018-07-25T03:29:48.363Z,48.17
2018-07-25T03:35:45.278Z,43.73
2018-07-25T03:38:16.424Z,58.50
2018-07-25T03:40:49.858Z,54.87
2018-07-25T03:43:22.444Z,51.57
2018-07-25T03:46:02.383Z,48.67
2018-07-25T03:48:36.246Z,38.90
2018-07-25T03:51:14.142Z,48.20
2018-07-25T03:53:47.039Z,36.07
2018-07-25T03:56:20.335Z,43.00
2018-07-25T03:58:53.262Z,36.50
2018-07-25T04:01:25.811Z,47.73
2018-07-25T04:03:58.675Z,34.90
2018-07-25T04:06:31.267Z,48.73
2018-07-25T04:09:04.097Z,50.57
2018-07-25T04:11:36.481Z,51.07
2018-07-25T04:14:10.133Z,48.60
2018-07-25T04:16:42.628Z,47.80
2018-07-25T04:19:15.109Z,37.77
2018-07-25T04:21:47.734Z,44.73
2018-07-25T04:24:20.455Z,46.00
2018-07-25T04:26:52.867Z,49.30
2018-07-25T04:29:25.256Z,46.83
2018-07-25T04:31:57.654Z,43.73
2018-07-25T04:34:30.094Z,48.03
2018-07-25T04:37:02.477Z,45.83
2018-07-25T04:39:34.972Z,50.23
2018-07-25T04:42:07.572Z,51.00
2018-07-25T04:44:40.022Z,45.60
2018-07-25T04:47:12.669Z,57.97
2018-07-25T04:49:45.315Z,51.17
2018-07-25T04:52:18.486Z,47.80
2018-07-25T04:54:51.606Z,40.50
2018-07-25T04:57:24.944Z,48.47
2018-07-25T04:59:57.463Z,55.10
2018-07-25T05:02:29.874Z,47.03
2018-07-25T05:05:02.316Z,43.73
2018-07-25T05:07:34.783Z,44.67
2018-07-25T05:10:07.751Z,50.03
2018-07-25T05:12:42.887Z,44.17
2018-07-25T05:15:15.699Z,33.37
2018-07-25T05:17:51.495Z,48.83
2018-07-25T05:20:24.273Z,44.73
2018-07-25T05:22:59.994Z,38.40
2018-07-25T05:25:46.923Z,49.03
2018-07-25T05:28:19.457Z,45.37
2018-07-25T05:30:53.499Z,44.57
2018-07-25T05:33:25.973Z,33.10
2018-07-25T05:35:58.883Z,30.53
2018-07-25T05:38:31.330Z,39.97
2018-07-25T05:41:03.755Z,44.77
2018-07-25T05:43:36.090Z,37.87
2018-07-25T05:46:08.505Z,42.63
2018-07-25T05:48:40.914Z,52.30
2018-07-25T05:51:13.381Z,46.00
2018-07-25T05:53:46.497Z,38.70
2018-07-25T05:59:40.071Z,38.17
2018-07-25T06:02:12.548Z,34.87
2018-07-25T06:04:44.825Z,39.77
2018-07-25T06:07:17.144Z,37.10
2018-07-25T06:09:49.402Z,37.10
2018-07-25T06:12:21.830Z,40.23
2018-07-25T06:14:54.094Z,36.33
2018-07-25T06:17:26.507Z,28.60
2018-07-25T06:19:58.796Z,42.47
2018-07-25T06:22:31.068Z,46.57
2018-07-25T06:25:03.574Z,39.27
2018-07-25T06:27:36.012Z,45.37
2018-07-25T06:30:09.049Z,32.87
2018-07-25T06:32:41.453Z,50.67
2018-07-25T06:35:14.158Z,34.43
2018-07-25T06:37:46.593Z,29.20
2018-07-25T06:40:19.375Z,41.87
2018-07-25T06:42:51.617Z,42.50
2018-07-25T06:45:24.072Z,41.23
2018-07-25T06:47:56.541Z,35.90
2018-07-25T06:50:28.929Z,40.70
2018-07-25T06:53:01.258Z,46.10
2018-07-25T06:55:33.543Z,41.00
2018-07-25T06:58:06.044Z,42.37
2018-07-25T07:00:38.557Z,42.83
2018-07-25T07:03:10.823Z,34.87
2018-07-25T07:05:43.112Z,40.40
2018-07-25T07:08:14.325Z,39.67
2018-07-25T07:10:46.639Z,49.43
2018-07-25T07:13:18.917Z,36.37
2018-07-25T07:15:51.321Z,43.27
2018-07-25T07:18:23.710Z,37.57
2018-07-25T07:20:55.910Z,36.40
2018-07-25T07:23:28.229Z,28.77
2018-07-25T07:26:00.516Z,46.23
2018-07-25T07:28:33.067Z,32.13
2018-07-25T07:31:05.356Z,36.53
2018-07-25T07:33:37.797Z,42.83
2018-07-25T07:36:10.207Z,45.60
2018-07-25T07:38:42.657Z,32.47
2018-07-25T07:41:14.948Z,52.33
2018-07-25T07:43:47.221Z,35.27
2018-07-25T07:46:19.525Z,47.80
2018-07-25T07:48:51.781Z,34.33
2018-07-25T07:51:24.260Z,38.90
2018-07-25T07:53:56.545Z,41.57
2018-07-25T07:56:28.826Z,32.63
2018-07-25T07:59:01.260Z,41.80
2018-07-25T08:01:33.570Z,39.33
2018-07-25T08:04:05.903Z,42.30
2018-07-25T08:06:38.489Z,40.63
2018-07-25T08:09:14.084Z,34.27
2018-07-25T08:11:46.975Z,31.80
2018-07-25T08:14:19.178Z,44.90
2018-07-25T08:16:51.479Z,39.20
2018-07-25T08:19:23.748Z,41.70
2018-07-25T08:21:56.048Z,32.17
2018-07-25T08:24:28.441Z,39.13
2018-07-25T08:27:00.946Z,39.47
2018-07-25T08:29:33.241Z,41.70
2018-07-25T08:32:05.529Z,40.13
2018-07-25T08:34:38.005Z,36.07
2018-07-25T08:37:10.525Z,40.07
2018-07-25T08:39:42.809Z,41.43
2018-07-25T08:42:15.475Z,37.10
2018-07-25T08:44:47.971Z,41.60
2018-07-25T08:47:20.131Z,48.87
2018-07-25T08:49:52.381Z,35.33
2018-07-25T08:52:24.883Z,45.83
2018-07-25T08:54:57.231Z,41.13
2018-07-25T08:57:29.509Z,44.07
2018-07-25T09:00:01.684Z,40.93
2018-07-25T09:02:34.096Z,45.50
2018-07-25T09:05:06.258Z,49.73
2018-07-25T09:07:38.751Z,40.33
2018-07-25T09:10:11.176Z,44.07
2018-07-25T09:12:43.434Z,54.37
2018-07-25T09:15:15.917Z,43.80
2018-07-25T09:17:48.297Z,54.50
2018-07-25T09:20:50.385Z,40.53
2018-07-25T09:23:22.674Z,32.80
2018-07-25T09:25:54.868Z,39.57
2018-07-25T09:28:27.230Z,48.73
2018-07-25T09:30:59.581Z,50.67
2018-07-25T09:33:30.549Z,39.03
2018-07-25T09:36:02.856Z,37.10
2018-07-25T09:38:35.075Z,31.73
2018-07-25T09:41:07.834Z,41.07
2018-07-25T09:43:40.101Z,35.00
2018-07-25T09:46:12.479Z,39.67
2018-07-25T09:48:44.968Z,32.23
2018-07-25T09:51:17.782Z,45.67
2018-07-25T09:53:50.215Z,46.63
2018-07-25T09:56:22.680Z,32.90
2018-07-25T09:58:54.835Z,41.20
2018-07-25T10:01:27.223Z,38.37
2018-07-25T10:03:59.717Z,38.53
2018-07-25T10:06:31.985Z,45.60
2018-07-25T10:09:04.699Z,41.00
2018-07-25T10:11:37.346Z,42.73
2018-07-25T10:14:09.586Z,48.20
2018-07-25T10:16:41.938Z,39.77
2018-07-25T10:19:14.530Z,50.23
2018-07-25T10:21:46.871Z,53.30
2018-07-25T10:24:19.288Z,41.73
2018-07-25T10:26:51.919Z,46.60
2018-07-25T10:29:24.336Z,40.00
2018-07-25T10:31:56.727Z,42.90
2018-07-25T10:34:28.969Z,49.27
2018-07-25T10:37:01.517Z,42.87
2018-07-25T10:39:33.822Z,51.97
2018-07-25T10:42:06.201Z,50.10
2018-07-25T10:44:38.643Z,44.90
2018-07-25T10:47:11.434Z,43.33
2018-07-25T10:49:43.820Z,41.60
2018-07-25T10:52:16.206Z,51.57
2018-07-25T10:54:48.658Z,95.53
2018-07-25T10:57:21.632Z,63.10
2018-07-25T10:59:54.416Z,105.37
2018-07-25T11:02:26.810Z,119.13
2018-07-25T11:04:59.101Z,83.13
2018-07-25T11:07:31.647Z,63.63
2018-07-25T11:10:04.211Z,57.77
2018-07-25T11:12:36.756Z,54.10
2018-07-25T11:15:08.932Z,56.23
2018-07-25T11:21:12.595Z,53.40
2018-07-25T11:23:45.102Z,49.30
2018-07-25T11:26:17.424Z,51.07
2018-07-25T11:28:49.680Z,48.30
2018-07-25T11:31:21.892Z,45.70
2018-07-25T11:33:54.268Z,49.63
2018-07-25T11:36:26.719Z,44.77
2018-07-25T11:38:58.868Z,41.10
2018-07-25T11:41:31.250Z,35.40
2018-07-25T11:44:03.358Z,54.83
2018-07-25T11:46:35.673Z,50.00
2018-07-25T11:49:08.221Z,49.23
2018-07-25T11:51:42.261Z,52.97
2018-07-25T11:54:17.878Z,42.93
2018-07-25T12:00:22.960Z,53.23
2018-07-25T12:02:57.115Z,52.03
2018-07-25T12:05:29.977Z,51.30
2018-07-25T12:08:02.771Z,45.50
2018-07-25T12:10:36.413Z,49.87
2018-07-25T12:13:09.693Z,45.83
2018-07-25T12:15:43.458Z,52.73
2018-07-25T12:18:16.803Z,60.03
2018-07-25T12:20:51.009Z,51.27
2018-07-25T12:23:23.808Z,58.27
2018-07-25T12:25:56.629Z,50.77
2018-07-25T12:28:30.555Z,40.10
2018-07-25T12:37:30.791Z,54.20
2018-07-25T12:40:03.161Z,33.60
2018-07-25T12:42:35.709Z,44.13
2018-07-25T12:45:08.397Z,39.07
2018-07-25T12:47:40.963Z,48.10
2018-07-25T12:50:14.228Z,48.17
2018-07-25T12:52:46.925Z,45.83
2018-07-25T12:55:19.428Z,31.67
2018-07-25T12:57:51.699Z,43.67
2018-07-25T13:00:24.984Z,34.33
2018-07-25T13:03:05.961Z,45.60
2018-07-25T13:05:44.303Z,41.63
2018-07-25T13:08:21.069Z,37.07
2018-07-25T13:10:56.856Z,45.27
2018-07-25T13:13:29.767Z,46.33
2018-07-25T13:16:02.400Z,43.10
2018-07-25T13:18:36.282Z,32.97
2018-07-25T13:21:08.578Z,35.43
2018-07-25T13:23:42.573Z,37.53
2018-07-25T13:26:20.134Z,40.03
2018-07-25T13:28:53.422Z,34.57
2018-07-25T13:31:26.104Z,40.43
2018-07-25T13:33:57.221Z,50.50
2018-07-25T13:36:28.252Z,34.77
2018-07-25T13:39:00.818Z,44.63
2018-07-25T13:41:33.137Z,39.03
2018-07-25T13:44:04.587Z,38.63
2018-07-25T13:46:36.857Z,39.40
2018-07-25T13:49:09.599Z,38.47
2018-07-25T13:51:42.030Z,39.93
2018-07-25T13:54:14.356Z,45.77
2018-07-25T13:56:46.909Z,48.80
2018-07-25T13:59:19.414Z,49.77
2018-07-25T14:01:53.295Z,35.67
2018-07-25T14:04:25.559Z,33.67
2018-07-25T14:10:37.315Z,39.73
2018-07-25T14:13:10.122Z,32.70
2018-07-25T14:15:44.067Z,44.63
2018-07-25T14:18:16.991Z,33.37
2018-07-25T14:20:51.221Z,35.50
2018-07-25T14:23:25.577Z,28.67
2018-07-25T14:25:58.264Z,41.60
2018-07-25T14:28:32.574Z,37.05
2018-07-25T14:31:05.925Z,41.58
2018-07-25T14:33:39.074Z,37.75
2018-07-25T14:36:11.818Z,34.18
2018-07-25T14:38:48.928Z,27.58
2018-07-25T14:41:23.187Z,36.23
2018-07-25T14:44:00.411Z,44.35
2018-07-25T14:46:35.887Z,49.35
2018-07-25T14:49:13.293Z,42.78
2018-07-25T14:51:48.566Z,35.65
2018-07-25T14:54:29.356Z,54.25
2018-07-25T14:57:16.196Z,38.30
2018-07-25T14:59:50.122Z,38.70
2018-07-25T15:34:14.604Z,35.55
2018-07-25T15:36:55.079Z,41.37
2018-07-25T15:39:29.043Z,24.98
2018-07-25T15:42:04.825Z,36.17
2018-07-25T15:44:38.133Z,28.50
2018-07-25T15:47:16.117Z,39.40
2018-07-25T15:49:50.220Z,30.00
2018-07-25T15:52:22.802Z,45.00
2018-07-25T15:54:57.537Z,38.10
2018-07-25T15:57:30.161Z,36.68
2018-07-25T16:00:02.727Z,49.00
2018-07-25T16:02:37.104Z,31.57
2018-07-25T16:05:10.656Z,38.67
2018-07-25T16:07:45.929Z,35.35
2018-07-25T16:10:18.628Z,21.60
2018-07-25T16:12:52.636Z,32.93
2018-07-25T16:15:25.701Z,43.10
2018-07-25T16:17:59.751Z,36.40
2018-07-25T16:20:33.161Z,32.83
2018-07-25T16:23:06.524Z,46.37
2018-07-25T16:25:41.289Z,43.52
2018-07-25T16:28:16.364Z,30.48
2018-07-25T16:30:49.245Z,32.08
2018-07-25T16:33:26.876Z,34.70
2018-07-25T16:35:59.615Z,35.03
2018-07-25T16:38:33.249Z,34.40
2018-07-25T16:41:07.756Z,35.75
2018-07-25T16:43:40.380Z,84.70
2018-07-25T16:49:02.622Z,27.25
2018-07-25T16:51:49.048Z,37.23
2018-07-25T16:54:25.156Z,35.85
2018-07-25T16:57:09.707Z,41.70
2018-07-25T16:59:52.358Z,36.20
2018-07-25T17:06:01.214Z,48.73
2018-07-25T17:08:35.913Z,27.95
2018-07-25T17:11:13.558Z,32.48
2018-07-25T17:13:48.263Z,40.23
2018-07-25T17:16:23.619Z,30.25
2018-07-25T17:19:05.273Z,34.80
2018-07-25T17:21:42.313Z,29.20
2018-07-25T17:24:19.547Z,27.20
2018-07-25T17:26:55.211Z,29.27
2018-07-25T17:29:32.759Z,51.88
2018-07-25T17:32:13.204Z,29.00
2018-07-25T17:34:55.224Z,32.75
2018-07-25T17:37:28.089Z,34.95
2018-07-25T17:40:02.332Z,38.95
2018-07-25T17:42:38.318Z,34.40
2018-07-25T17:45:28.485Z,38.20
2018-07-25T17:48:10.103Z,31.07
2018-07-25T17:53:43.980Z,22.45
2018-07-25T17:59:10.655Z,27.17
2018-07-25T18:05:10.428Z,35.60
2018-07-25T18:07:43.332Z,27.67
2018-07-25T18:10:27.661Z,33.88
2018-07-25T18:13:13.285Z,73.15
2018-07-25T18:15:58.954Z,23.60
2018-07-25T18:18:49.573Z,30.48
2018-07-25T18:21:32.276Z,25.77
2018-07-25T18:24:15.529Z,28.25
2018-07-25T18:27:03.053Z,28.52
2018-07-25T18:29:37.606Z,28.32
2018-07-25T18:38:06.655Z,34.88
2018-07-25T18:40:43.670Z,32.38
2018-07-25T18:43:19.576Z,35.43
2018-07-25T18:45:55.813Z,27.67
2018-07-25T18:48:43.864Z,23.20
2018-07-25T18:51:19.703Z,30.27
2018-07-25T18:53:52.345Z,37.58
2018-07-25T18:59:24.312Z,22.60
2018-07-25T19:02:02.684Z,20.45
2018-07-25T19:04:37.306Z,20.02
2018-07-25T19:07:11.832Z,25.48
2018-07-25T19:12:30.081Z,27.70
2018-07-25T19:15:37.918Z,15.45
2018-07-25T19:18:34.257Z,22.02
2018-07-25T19:21:13.417Z,19.50
2018-07-25T19:26:39.342Z,23.73
2018-07-25T19:29:22.771Z,31.25
2018-07-25T19:34:55.985Z,21.12
2018-07-25T19:37:37.843Z,18.52
2018-07-25T19:40:22.473Z,18.05
2018-07-25T19:43:05.799Z,18.42
2018-07-25T19:45:40.848Z,14.73
2018-07-25T19:48:14.925Z,45.00
2018-07-25T19:50:49.532Z,20.37
2018-07-25T19:53:34.092Z,21.42
2018-07-25T19:56:14.164Z,17.32
2018-07-25T20:01:34.569Z,26.70
2018-07-25T20:04:12.370Z,22.25
2018-07-25T20:06:52.885Z,18.40
2018-07-25T20:09:36.612Z,22.42
2018-07-25T20:12:13.474Z,21.57
2018-07-25T20:14:52.732Z,21.60
2018-07-25T20:17:25.208Z,12.07
2018-07-25T20:20:05.783Z,11.35
2018-07-25T20:22:38.519Z,14.00
2018-07-25T20:25:12.293Z,24.02
2018-07-25T20:27:43.700Z,16.90
2018-07-25T20:30:20.381Z,14.45
2018-07-25T20:32:53.647Z,24.02
2018-07-25T20:35:28.818Z,27.42
2018-07-25T20:38:02.447Z,31.27
2018-07-25T20:40:35.870Z,23.45
2018-07-25T20:43:08.638Z,31.68
2018-07-25T20:45:42.804Z,21.12
2018-07-25T20:48:15.425Z,28.00
2018-07-25T20:50:49.095Z,28.17
2018-07-25T20:53:21.665Z,15.38
2018-07-25T20:55:55.709Z,17.37
2018-07-25T20:58:32.120Z,19.02
2018-07-25T21:01:08.743Z,21.35
2018-07-25T21:03:43.747Z,20.92
2018-07-25T21:06:23.093Z,15.23
2018-07-25T21:08:56.898Z,14.93
2018-07-25T21:11:29.843Z,25.05
2018-07-25T21:14:02.815Z,25.25
2018-07-25T21:16:35.331Z,33.18
2018-07-25T21:19:07.841Z,16.60
2018-07-25T21:21:41.307Z,26.10
2018-07-25T21:24:21.477Z,21.07
2018-07-25T21:27:03.708Z,19.12
2018-07-25T21:29:39.908Z,33.25
2018-07-25T21:32:16.572Z,28.27
2018-07-25T21:38:11.296Z,18.92
2018-07-25T21:40:43.648Z,13.53
2018-07-25T21:43:16.158Z,21.07
2018-07-25T21:45:48.779Z,22.58
2018-07-25T21:48:21.182Z,22.50
2018-07-25T21:50:53.522Z,16.87
2018-07-25T21:53:26.049Z,13.50
2018-07-25T21:56:01.782Z,11.45
2018-07-25T21:58:35.481Z,17.75
2018-07-25T22:01:19.268Z,17.75
2018-07-25T22:03:51.488Z,27.80
2018-07-25T22:06:23.797Z,24.23
2018-07-25T22:08:56.124Z,24.92
2018-07-25T22:11:28.427Z,24.50
2018-07-25T22:14:07.454Z,21.60
2018-07-25T22:16:39.783Z,23.15
2018-07-25T22:19:16.653Z,28.17
2018-07-25T22:21:57.347Z,17.48
2018-07-25T22:24:35.624Z,20.12
2018-07-25T22:27:08.012Z,77.35
2018-07-25T22:29:40.231Z,33.55
2018-07-25T22:32:12.506Z,20.92
2018-07-25T22:34:44.710Z,32.35
2018-07-25T22:37:17.009Z,48.15
2018-07-25T22:39:49.284Z,30.97
2018-07-25T22:42:22.401Z,24.25
2018-07-25T22:44:54.707Z,20.32
2018-07-25T22:47:27.040Z,25.00
2018-07-25T22:49:59.256Z,30.48
2018-07-25T22:52:31.560Z,20.62
2018-07-25T22:55:03.798Z,23.47
2018-07-25T22:57:36.089Z,21.70
2018-07-25T23:00:09.055Z,20.55
2018-07-25T23:02:41.615Z,29.92
2018-07-25T23:05:59.030Z,23.40
2018-07-25T23:08:31.668Z,32.83
2018-07-25T23:11:04.178Z,23.57
2018-07-25T23:13:36.775Z,27.85
2018-07-25T23:19:26.512Z,23.25
2018-07-25T23:21:59.104Z,23.77
2018-07-25T23:24:31.734Z,45.95
2018-07-25T23:27:04.273Z,36.50
2018-07-25T23:32:57.602Z,26.68
2018-07-25T23:35:29.982Z,32.67
2018-07-25T23:38:02.321Z,33.40
2018-07-25T23:40:34.514Z,26.82
2018-07-25T23:46:27.981Z,27.70
2018-07-25T23:49:00.744Z,25.17
2018-07-25T23:51:33.295Z,27.62
2018-07-25T23:54:06.688Z,25.70
2018-07-25T23:57:17.799Z,30.90
2018-07-25T23:59:51.700Z,23.97
